createdAt,value
2019-06-08T00:01:51.059Z,15.21
2019-06-08T00:04:55.478Z,15.37
2019-06-08T00:08:00.235Z,15.50
2019-06-08T00:11:04.855Z,15.55
2019-06-08T00:14:09.595Z,15.60
2019-06-08T00:17:27.322Z,15.60
2019-06-08T00:20:21.781Z,15.61
2019-06-08T00:23:26.293Z,15.73
2019-06-08T00:26:30.733Z,15.57
2019-06-08T00:29:35.221Z,15.45
2019-06-08T00:32:39.711Z,15.48
2019-06-08T00:35:44.154Z,15.51
2019-06-08T00:38:48.629Z,15.44
2019-06-08T00:41:53.081Z,15.27
2019-06-08T00:44:57.547Z,15.11
2019-06-08T00:48:02.001Z,15.19
2019-06-08T00:51:06.810Z,15.28
2019-06-08T00:54:11.234Z,15.42
2019-06-08T00:57:15.699Z,15.39
2019-06-08T01:00:20.452Z,15.43
2019-06-08T01:03:25.860Z,15.41
2019-06-08T01:06:30.329Z,15.39
2019-06-08T01:09:34.791Z,15.51
2019-06-08T01:12:39.474Z,15.24
2019-06-08T01:15:43.911Z,15.39
2019-06-08T01:18:48.385Z,15.47
2019-06-08T01:21:52.839Z,15.57
2019-06-08T01:24:57.578Z,15.56
2019-06-08T01:28:02.024Z,15.64
2019-06-08T01:31:06.732Z,15.72
2019-06-08T01:34:11.181Z,15.80
2019-06-08T01:37:15.626Z,15.72
2019-06-08T01:40:21.295Z,15.62
2019-06-08T01:43:26.011Z,15.67
2019-06-08T01:46:30.455Z,15.44
2019-06-08T01:49:34.908Z,15.38
2019-06-08T01:52:39.370Z,15.38
2019-06-08T01:55:44.199Z,15.27
2019-06-08T01:58:48.648Z,15.19
2019-06-08T02:01:53.089Z,15.27
2019-06-08T02:04:57.868Z,15.36
2019-06-08T02:08:02.310Z,15.10
2019-06-08T02:11:07.220Z,15.08
2019-06-08T02:14:11.669Z,15.14
2019-06-08T02:17:16.108Z,15.16
2019-06-08T02:20:21.000Z,15.01
2019-06-08T02:23:26.741Z,14.93
2019-06-08T02:26:32.171Z,14.93
2019-06-08T02:29:38.159Z,14.79
2019-06-08T02:32:42.602Z,14.72
2019-06-08T02:35:47.308Z,14.81
2019-06-08T02:38:51.745Z,14.87
2019-06-08T02:41:56.203Z,14.88
2019-06-08T02:45:00.664Z,14.89
2019-06-08T02:48:05.653Z,14.87
2019-06-08T02:51:10.279Z,14.77
2019-06-08T02:54:14.979Z,14.78
2019-06-08T02:57:22.066Z,14.95
2019-06-08T03:00:26.519Z,15.10
2019-06-08T03:03:33.836Z,15.18
2019-06-08T03:06:41.513Z,15.21
2019-06-08T03:09:48.418Z,15.21
2019-06-08T03:12:56.220Z,15.02
2019-06-08T03:16:00.680Z,15.00
2019-06-08T03:19:20.968Z,15.00
2019-06-08T03:22:11.455Z,15.12
2019-06-08T03:25:15.907Z,15.17
2019-06-08T03:28:20.346Z,15.21
2019-06-08T03:31:24.834Z,15.25
2019-06-08T03:34:29.263Z,15.30
2019-06-08T03:37:35.623Z,15.33
2019-06-08T03:40:40.632Z,15.30
2019-06-08T03:43:46.071Z,15.12
2019-06-08T03:46:50.521Z,15.22
2019-06-08T03:49:57.657Z,15.25
2019-06-08T03:53:01.146Z,15.37
2019-06-08T03:56:05.981Z,15.22
2019-06-08T03:59:10.427Z,15.16
2019-06-08T04:02:14.872Z,15.28
2019-06-08T04:05:19.331Z,15.04
2019-06-08T04:08:23.763Z,15.10
2019-06-08T04:11:28.213Z,15.04
2019-06-08T04:14:32.662Z,15.20
2019-06-08T04:17:37.953Z,15.31
2019-06-08T04:20:45.212Z,15.32
2019-06-08T04:23:50.459Z,15.23
2019-06-08T04:26:54.925Z,15.11
2019-06-08T04:29:59.371Z,15.13
2019-06-08T04:33:03.821Z,15.16
2019-06-08T04:36:08.613Z,15.29
2019-06-08T04:39:13.066Z,15.35
2019-06-08T04:42:17.499Z,15.39
2019-06-08T04:45:21.942Z,15.44
2019-06-08T04:48:26.708Z,15.47
2019-06-08T04:51:31.172Z,15.46
2019-06-08T04:54:35.604Z,15.50
2019-06-08T04:57:41.901Z,15.49
2019-06-08T05:00:48.231Z,15.48
2019-06-08T05:03:52.406Z,15.30
2019-06-08T05:06:56.857Z,15.42
2019-06-08T05:10:01.309Z,15.55
2019-06-08T05:13:06.028Z,15.60
2019-06-08T05:16:10.464Z,15.53
2019-06-08T05:19:15.246Z,15.46
2019-06-08T05:22:19.975Z,15.52
2019-06-08T05:25:24.703Z,15.62
2019-06-08T05:28:29.150Z,15.75
2019-06-08T05:31:33.611Z,15.77
2019-06-08T05:34:39.284Z,15.77
2019-06-08T05:37:43.797Z,15.79
2019-06-08T05:40:48.217Z,15.78
2019-06-08T05:43:52.700Z,15.77
2019-06-08T05:46:57.165Z,15.86
2019-06-08T05:50:01.629Z,15.90
2019-06-08T05:53:06.236Z,15.98
2019-06-08T05:56:10.677Z,15.94
2019-06-08T05:59:15.136Z,15.94
2019-06-08T06:02:19.587Z,15.95
2019-06-08T06:05:24.023Z,16.00
2019-06-08T06:08:28.783Z,15.97
2019-06-08T06:11:33.510Z,15.95
2019-06-08T06:14:37.985Z,15.98
2019-06-08T06:17:43.958Z,16.09
2019-06-08T06:20:49.391Z,15.96
2019-06-08T06:23:53.937Z,16.16
2019-06-08T06:26:58.461Z,16.43
2019-06-08T06:30:03.908Z,16.62
2019-06-08T06:33:08.359Z,16.73
2019-06-08T06:36:13.102Z,16.74
2019-06-08T06:39:17.557Z,17.01
2019-06-08T06:42:24.838Z,17.04
2019-06-08T06:45:28.189Z,17.10
2019-06-08T06:48:32.654Z,17.29
2019-06-08T06:51:37.098Z,17.59
2019-06-08T06:54:42.671Z,17.74
2019-06-08T06:57:47.553Z,17.88
2019-06-08T07:00:51.994Z,17.90
2019-06-08T07:03:56.516Z,18.03
2019-06-08T07:07:01.005Z,18.26
2019-06-08T07:10:08.866Z,18.01
2019-06-08T07:13:13.321Z,18.08
2019-06-08T07:16:19.300Z,18.04
2019-06-08T07:19:24.256Z,18.24
2019-06-08T07:22:28.698Z,18.47
2019-06-08T07:25:33.146Z,18.83
2019-06-08T07:28:37.601Z,18.91
2019-06-08T07:31:42.041Z,18.99
2019-06-08T07:34:47.841Z,18.85
2019-06-08T07:37:53.716Z,18.98
2019-06-08T07:40:59.941Z,19.12
2019-06-08T07:44:04.633Z,19.30
2019-06-08T07:47:09.394Z,19.30
2019-06-08T07:50:14.780Z,19.50
2019-06-08T07:53:19.220Z,19.50
2019-06-08T07:56:23.747Z,19.32
2019-06-08T07:59:28.207Z,19.28
2019-06-08T08:02:32.646Z,19.39
2019-06-08T08:05:37.113Z,19.55
2019-06-08T08:08:41.546Z,19.74
2019-06-08T08:11:46.306Z,19.96
2019-06-08T08:14:51.321Z,19.89
2019-06-08T08:17:55.779Z,20.09
2019-06-08T08:21:09.051Z,20.00
2019-06-08T08:24:07.310Z,19.99
2019-06-08T08:27:11.883Z,20.25
2019-06-08T08:30:17.327Z,20.54
2019-06-08T08:33:22.675Z,20.26
2019-06-08T08:36:29.430Z,20.27
2019-06-08T08:39:33.306Z,20.50
2019-06-08T08:42:38.744Z,20.72
2019-06-08T08:45:43.401Z,20.60
2019-06-08T08:48:48.611Z,20.72
2019-06-08T08:51:54.033Z,20.58
2019-06-08T08:55:00.459Z,20.75
2019-06-08T08:58:04.735Z,20.95
2019-06-08T09:01:09.196Z,21.10
2019-06-08T09:04:13.641Z,21.01
2019-06-08T09:07:18.469Z,20.83
2019-06-08T09:10:23.033Z,20.87
2019-06-08T09:13:28.252Z,20.96
2019-06-08T09:16:32.814Z,20.93
2019-06-08T09:19:38.231Z,21.18
2019-06-08T09:22:53.780Z,21.13
2019-06-08T09:25:49.166Z,21.39
2019-06-08T09:28:54.490Z,21.67
2019-06-08T09:32:01.564Z,21.28
2019-06-08T09:35:09.101Z,21.04
2019-06-08T09:38:12.516Z,21.18
2019-06-08T09:41:18.666Z,21.35
2019-06-08T09:44:23.264Z,21.67
2019-06-08T09:47:28.136Z,21.76
2019-06-08T09:50:32.622Z,21.85
2019-06-08T09:53:41.210Z,21.74
2019-06-08T09:56:43.547Z,21.60
2019-06-08T09:59:48.315Z,21.68
2019-06-08T10:02:54.743Z,21.64
2019-06-08T10:06:04.965Z,21.61
2019-06-08T10:09:08.979Z,21.81
2019-06-08T10:12:13.556Z,22.11
2019-06-08T10:15:18.365Z,22.10
2019-06-08T10:18:22.844Z,22.16
2019-06-08T10:21:28.419Z,21.96
2019-06-08T10:24:32.984Z,22.35
2019-06-08T10:27:38.616Z,22.39
2019-06-08T10:30:43.155Z,22.51
2019-06-08T10:33:48.206Z,22.51
2019-06-08T10:36:52.835Z,22.76
2019-06-08T10:40:00.656Z,22.90
2019-06-08T10:43:04.598Z,22.89
2019-06-08T10:46:16.349Z,22.65
2019-06-08T10:49:18.417Z,22.58
2019-06-08T10:52:22.006Z,22.80
2019-06-08T10:55:28.057Z,23.12
2019-06-08T10:58:32.716Z,23.30
2019-06-08T11:01:38.580Z,23.44
2019-06-08T11:04:43.571Z,23.41
2019-06-08T11:07:48.233Z,23.56
2019-06-08T11:10:52.634Z,23.85
2019-06-08T11:13:58.391Z,23.73
2019-06-08T11:17:04.898Z,23.65
2019-06-08T11:20:13.088Z,23.07
2019-06-08T11:23:18.737Z,22.92
2019-06-08T11:26:24.596Z,23.17
2019-06-08T11:29:30.686Z,23.36
2019-06-08T11:32:35.156Z,23.47
2019-06-08T11:35:39.601Z,23.86
2019-06-08T11:38:44.061Z,24.16
2019-06-08T11:41:48.563Z,24.02
2019-06-08T11:44:53.043Z,24.09
2019-06-08T11:47:58.437Z,23.90
2019-06-08T11:51:04.559Z,24.02
2019-06-08T11:54:27.372Z,24.15
2019-06-08T11:57:17.473Z,24.09
2019-06-08T12:00:53.235Z,24.33
2019-06-08T12:03:58.016Z,24.53
2019-06-08T12:07:04.060Z,24.45
2019-06-08T12:10:10.562Z,24.08
2019-06-08T12:13:17.514Z,23.65
2019-06-08T12:16:22.309Z,23.97
2019-06-08T12:19:28.442Z,24.25
2019-06-08T12:22:33.175Z,23.91
2019-06-08T12:25:37.889Z,23.88
2019-06-08T12:28:42.343Z,24.19
2019-06-08T12:31:47.044Z,24.30
2019-06-08T12:34:51.500Z,24.39
2019-06-08T12:37:58.128Z,24.57
2019-06-08T12:41:02.144Z,24.38
2019-06-08T12:44:09.714Z,24.31
2019-06-08T12:47:16.100Z,24.47
2019-06-08T12:50:20.069Z,24.49
2019-06-08T12:53:24.678Z,24.13
2019-06-08T12:56:29.190Z,24.32
2019-06-08T12:59:33.663Z,24.41
2019-06-08T13:02:38.521Z,24.47
2019-06-08T13:05:43.095Z,24.57
2019-06-08T13:08:47.854Z,24.79
2019-06-08T13:11:52.358Z,24.64
2019-06-08T13:14:58.259Z,24.67
2019-06-08T13:18:02.830Z,24.68
2019-06-08T13:21:20.329Z,24.74
2019-06-08T13:24:13.491Z,24.82
2019-06-08T13:27:21.517Z,25.04
2019-06-08T13:30:26.434Z,25.20
2019-06-08T13:33:30.616Z,25.26
2019-06-08T13:36:35.077Z,25.32
2019-06-08T13:39:39.527Z,25.19
2019-06-08T13:42:43.964Z,25.31
2019-06-08T13:45:51.289Z,25.01
2019-06-08T13:48:54.603Z,24.86
2019-06-08T13:51:59.059Z,24.88
2019-06-08T13:55:05.356Z,24.97
2019-06-08T13:58:09.793Z,25.03
2019-06-08T14:01:15.350Z,25.22
2019-06-08T14:04:21.057Z,25.10
2019-06-08T14:07:31.778Z,25.21
2019-06-08T14:10:41.177Z,25.36
2019-06-08T14:13:47.933Z,25.46
2019-06-08T14:16:52.075Z,25.58
2019-06-08T14:19:58.690Z,25.72
2019-06-08T14:23:02.716Z,25.74
2019-06-08T14:26:08.304Z,25.55
2019-06-08T14:29:12.882Z,25.64
2019-06-08T14:32:18.942Z,25.69
2019-06-08T14:35:25.344Z,25.75
2019-06-08T14:38:38.296Z,25.76
2019-06-08T14:41:36.806Z,25.88
2019-06-08T14:44:41.261Z,25.87
2019-06-08T14:47:47.579Z,25.75
2019-06-08T14:50:51.880Z,25.67
2019-06-08T14:53:58.266Z,25.48
2019-06-08T14:57:03.244Z,25.47
2019-06-08T15:00:11.898Z,25.56
2019-06-08T15:03:14.709Z,25.67
2019-06-08T15:06:19.403Z,25.81
2019-06-08T15:09:23.886Z,25.99
2019-06-08T15:12:31.076Z,26.06
2019-06-08T15:15:34.848Z,25.97
2019-06-08T15:18:39.290Z,26.10
2019-06-08T15:21:43.759Z,25.88
2019-06-08T15:24:48.205Z,25.96
2019-06-08T15:27:52.821Z,25.91
2019-06-08T15:30:59.790Z,25.80
2019-06-08T15:34:04.215Z,25.72
2019-06-08T15:37:09.432Z,25.60
2019-06-08T15:40:14.556Z,25.60
2019-06-08T15:43:19.004Z,25.67
2019-06-08T15:46:24.109Z,25.62
2019-06-08T15:49:30.606Z,25.64
2019-06-08T15:52:35.661Z,25.60
2019-06-08T15:55:41.461Z,25.44
2019-06-08T15:58:48.529Z,25.36
2019-06-08T16:01:52.355Z,25.33
2019-06-08T16:04:56.808Z,25.21
2019-06-08T16:08:01.264Z,25.08
2019-06-08T16:11:05.745Z,24.90
2019-06-08T16:14:10.195Z,24.36
2019-06-08T16:17:14.635Z,24.36
2019-06-08T16:20:19.085Z,24.50
2019-06-08T16:23:23.528Z,24.51
2019-06-08T16:26:27.988Z,24.53
2019-06-08T16:29:33.324Z,24.55
2019-06-08T16:32:37.869Z,24.53
2019-06-08T16:35:42.327Z,24.52
2019-06-08T16:38:46.842Z,24.33
2019-06-08T16:41:51.287Z,24.16
2019-06-08T16:44:55.897Z,24.14
2019-06-08T16:48:00.347Z,23.91
2019-06-08T16:51:04.807Z,23.69
2019-06-08T16:54:09.505Z,23.54
2019-06-08T16:57:13.964Z,23.47
2019-06-08T17:00:30.814Z,23.26
2019-06-08T17:03:25.068Z,23.20
2019-06-08T17:06:29.519Z,23.07
2019-06-08T17:09:34.247Z,23.12
2019-06-08T17:12:39.182Z,23.06
2019-06-08T17:15:43.803Z,22.83
2019-06-08T17:18:48.311Z,22.80
2019-06-08T17:21:52.760Z,22.65
2019-06-08T17:24:57.204Z,22.55
2019-06-08T17:28:01.655Z,22.52
2019-06-08T17:31:06.120Z,22.39
2019-06-08T17:34:10.552Z,22.31
2019-06-08T17:37:15.003Z,22.23
2019-06-08T17:40:19.448Z,22.15
2019-06-08T17:43:24.296Z,22.12
2019-06-08T17:46:28.795Z,22.09
2019-06-08T17:49:34.450Z,21.98
2019-06-08T17:52:39.023Z,21.95
2019-06-08T17:55:43.997Z,21.94
2019-06-08T17:58:48.491Z,21.82
2019-06-08T18:01:52.946Z,21.63
2019-06-08T18:04:57.969Z,21.58
2019-06-08T18:08:02.636Z,21.43
2019-06-08T18:11:08.084Z,21.35
2019-06-08T18:14:12.711Z,21.30
2019-06-08T18:17:17.883Z,21.19
2019-06-08T18:20:22.717Z,21.09
2019-06-08T18:23:27.912Z,20.94
2019-06-08T18:26:34.149Z,20.79
2019-06-08T18:29:39.629Z,20.47
2019-06-08T18:32:46.352Z,20.31
2019-06-08T18:35:51.545Z,19.97
2019-06-08T18:38:58.025Z,19.73
2019-06-08T18:42:02.168Z,19.50
2019-06-08T18:45:07.663Z,19.33
2019-06-08T18:48:12.115Z,19.16
2019-06-08T18:51:17.537Z,19.09
2019-06-08T18:54:22.078Z,19.00
2019-06-08T18:57:27.494Z,18.89
2019-06-08T19:00:41.163Z,18.71
2019-06-08T19:03:47.152Z,18.58
2019-06-08T19:06:50.644Z,18.51
2019-06-08T19:09:57.852Z,18.40
2019-06-08T19:13:02.672Z,18.32
2019-06-08T19:16:07.599Z,18.11
2019-06-08T19:19:12.160Z,18.06
2019-06-08T19:22:19.010Z,17.94
2019-06-08T19:25:22.768Z,17.73
2019-06-08T19:28:35.767Z,17.62
2019-06-08T19:31:33.704Z,17.54
2019-06-08T19:34:40.671Z,17.38
2019-06-08T19:37:44.342Z,17.38
2019-06-08T19:40:48.791Z,17.26
2019-06-08T19:43:54.799Z,17.27
2019-06-08T19:46:59.486Z,17.12
2019-06-08T19:50:04.497Z,16.91
2019-06-08T19:53:08.929Z,16.86
2019-06-08T19:56:13.387Z,16.79
2019-06-08T19:59:18.419Z,16.81
2019-06-08T20:02:22.967Z,16.77
2019-06-08T20:05:28.520Z,16.79
2019-06-08T20:08:33.061Z,16.74
2019-06-08T20:11:43.259Z,16.72
2019-06-08T20:14:43.766Z,16.61
2019-06-08T20:17:50.302Z,16.51
2019-06-08T20:20:54.731Z,16.44
2019-06-08T20:23:59.179Z,16.28
2019-06-08T20:27:03.995Z,16.33
2019-06-08T20:30:12.210Z,16.26
2019-06-08T20:33:15.909Z,16.16
2019-06-08T20:36:20.379Z,16.13
2019-06-08T20:39:27.190Z,16.07
2019-06-08T20:42:31.076Z,16.03
2019-06-08T20:45:37.514Z,15.94
2019-06-08T20:48:42.171Z,15.82
2019-06-08T20:51:49.214Z,15.83
2019-06-08T20:54:53.551Z,15.86
2019-06-08T20:57:58.126Z,15.90
2019-06-08T21:01:02.581Z,15.84
2019-06-08T21:04:07.681Z,15.68
2019-06-08T21:07:12.225Z,15.69
2019-06-08T21:10:17.487Z,15.61
2019-06-08T21:13:22.015Z,15.62
2019-06-08T21:16:27.690Z,15.61
2019-06-08T21:19:32.226Z,15.40
2019-06-08T21:22:36.668Z,15.20
2019-06-08T21:25:41.116Z,15.13
2019-06-08T21:28:49.375Z,15.08
2019-06-08T21:31:53.392Z,15.08
2019-06-08T21:35:00.245Z,15.01
2019-06-08T21:38:19.210Z,15.01
2019-06-08T21:41:10.540Z,15.00
2019-06-08T21:44:14.977Z,14.88
2019-06-08T21:47:19.900Z,14.85
2019-06-08T21:50:24.357Z,14.81
2019-06-08T21:53:28.796Z,14.79
2019-06-08T21:56:33.244Z,14.56
2019-06-08T21:59:37.927Z,14.55
2019-06-08T22:02:42.434Z,14.55
2019-06-08T22:05:47.350Z,14.46
2019-06-08T22:08:51.984Z,14.43
2019-06-08T22:11:59.205Z,14.39
2019-06-08T22:15:03.147Z,14.41
2019-06-08T22:18:08.343Z,14.26
2019-06-08T22:21:12.951Z,14.16
2019-06-08T22:24:17.391Z,14.20
2019-06-08T22:27:21.846Z,14.20
2019-06-08T22:30:36.445Z,13.73
2019-06-08T22:33:33.217Z,13.81
2019-06-08T22:36:37.673Z,13.82
2019-06-08T22:39:42.113Z,13.83
2019-06-08T22:42:48.131Z,13.71
2019-06-08T22:45:54.316Z,13.83
2019-06-08T22:49:01.181Z,13.75
2019-06-08T22:52:07.962Z,13.67
2019-06-08T22:55:11.821Z,13.65
2019-06-08T22:58:19.008Z,13.66
2019-06-08T23:01:23.001Z,13.58
2019-06-08T23:04:27.814Z,13.53
2019-06-08T23:07:32.863Z,13.59
2019-06-08T23:10:37.589Z,13.62
2019-06-08T23:13:42.068Z,13.54
2019-06-08T23:16:47.187Z,13.66
2019-06-08T23:19:51.743Z,13.54
2019-06-08T23:22:58.325Z,13.52
2019-06-08T23:26:03.986Z,13.48
2019-06-08T23:29:09.697Z,13.40
2019-06-08T23:32:14.269Z,13.41
2019-06-08T23:35:18.721Z,13.28
2019-06-08T23:38:23.180Z,13.33
2019-06-08T23:41:27.639Z,13.27
2019-06-08T23:44:32.083Z,13.33
2019-06-08T23:47:38.371Z,13.22
2019-06-08T23:50:42.999Z,13.11
2019-06-08T23:53:47.885Z,13.17
2019-06-08T23:56:52.479Z,13.15
2019-06-08T23:59:59.358Z,13.22
